Devils Lake, ND

10:02 PM CDT on July 05, 2015 (GMT -0500)
Lake Region RadioWorks | | Change Station
CLOSE
Current Station
Personal Weather Station
Location: Devils Lake, ND
Elevation: 1431 ft
Nearby Weather Stations

Elev 1431 ft 48.11 °N, 98.87 °W | Updated 1 minute ago

Overcast
Overcast
66.8 °F
Feels Like 66.8 °F
N
2.0
Wind Variable Wind from NW
Gusts 3.0 mph

Today
High -- | Low -- °F
--% Chance of Precip.
Yesterday
High -- | Low -- °F
Precip. -- in
5:42 AM 9:37 PM
Waning Gibbous, 80% visible
Pressure 29.91 in
Visibility 2.0 miles
Clouds Overcast 3100 ft
Dew Point 60 °F
Humidity 78%
Rainfall 0.76 in
Snow Depth Not available.
UV 0 out of 12
Pollen 2.20 out of 12
Air Quality Not available.
Flu Activity Not available.
METAR KDVL 060255Z AUTO 32007KT 2SM OVC031 18/13 A2991 RMK AO1 52017

More Conditions Fewer Conditions

Pressure 29.91 in
Visibility 2.0 miles
Clouds Overcast 3100 ft
Dew Point 60 °F
Humidity 78%
Rainfall 0.76 in
Snow Depth Not available.
UV 0 out of 12
Pollen 2.20 out of 12
Air Quality Not available.
Flu Activity Not available.
METAR KDVL 060255Z AUTO 32007KT 2SM OVC031 18/13 A2991 RMK AO1 52017

More Conditions Fewer Conditions

10-Day Weather Forecast

×

Almanac

Astronomy

Jul. 05, 2015 Rise Set
Actual Time
Civil Twilight
Nautical Twilight
Astronomical Twilight
Moon
Length of Visible Light
Length of Day
Tomorrow will be .
, % of the Moon is Illuminated

Today's Extremes

State Highs State Lows

Community

WunderPhotos

Upload Photos

1,835,459 photos uploaded!

WunderBlogs® & News

Nearby

Air Quality

  Air Quality AQ Index Pollutant
Not available.

Snow Depth

Station Depth Elevation

Earthquake Activity

City Distance Mag. Time & Date
Minimum magnitude displayed is 2.5.

Coastal Water Temperatures

Place Temperature

Stations

Nearby Weather Stations

Station Location Temp. Windchill Dew Point Humidity Wind Precip. Elev Updated Type